sensor_id;sensor_type;location;lat;lon;timestamp;pressure;altitude;pressure_sealevel;temperature;humidity
17450;BME280;8842;51.244;7.102;2023-01-26T00:01:41;100271.59;;;-0.49;100.00
17450;BME280;8842;51.244;7.102;2023-01-26T00:11:58;100265.99;;;-0.53;100.00
17450;BME280;8842;51.244;7.102;2023-01-26T00:22:13;100258.28;;;-0.59;100.00
17450;BME280;8842;51.244;7.102;2023-01-26T00:27:17;100249.71;;;-0.64;100.00
17450;BME280;8842;51.244;7.102;2023-01-26T00:37:33;100236.95;;;-0.57;100.00
17450;BME280;8842;51.244;7.102;2023-01-26T00:47:49;100229.77;;;-0.68;100.00
17450;BME280;8842;51.244;7.102;2023-01-26T00:58:06;100207.88;;;-0.80;100.00
17450;BME280;8842;51.244;7.102;2023-01-26T01:08:22;100195.19;;;-0.98;100.00
17450;BME280;8842;51.244;7.102;2023-01-26T01:18:38;100176.20;;;-1.06;100.00
17450;BME280;8842;51.244;7.102;2023-01-26T01:28:55;100173.05;;;-1.00;100.00
17450;BME280;8842;51.244;7.102;2023-01-26T01:39:12;100160.66;;;-1.11;100.00
17450;BME280;8842;51.244;7.102;2023-01-26T01:49:30;100149.07;;;-0.96;100.00
17450;BME280;8842;51.244;7.102;2023-01-26T01:59:52;100145.87;;;-0.88;100.00
17450;BME280;8842;51.244;7.102;2023-01-26T02:10:10;100146.38;;;-0.71;100.00
17450;BME280;8842;51.244;7.102;2023-01-26T02:20:39;100138.43;;;-0.65;100.00
17450;BME280;8842;51.244;7.102;2023-01-26T02:30:59;100128.06;;;-0.68;100.00
17450;BME280;8842;51.244;7.102;2023-01-26T02:36:06;100130.08;;;-0.60;100.00
17450;BME280;8842;51.244;7.102;2023-01-26T02:46:23;100123.92;;;-0.58;100.00
17450;BME280;8842;51.244;7.102;2023-01-26T02:56:39;100117.54;;;-0.43;100.00
17450;BME280;8842;51.244;7.102;2023-01-26T03:01:43;100118.91;;;-0.46;100.00
17450;BME280;8842;51.244;7.102;2023-01-26T03:11:59;100099.00;;;-0.33;100.00
17450;BME280;8842;51.244;7.102;2023-01-26T03:17:03;100106.57;;;-0.40;100.00
17450;BME280;8842;51.244;7.102;2023-01-26T03:27:20;100108.61;;;-0.33;100.00
17450;BME280;8842;51.244;7.102;2023-01-26T03:37:42;100094.15;;;-0.29;100.00
17450;BME280;8842;51.244;7.102;2023-01-26T03:42:46;100096.33;;;-0.30;100.00
17450;BME280;8842;51.244;7.102;2023-01-26T03:53:23;100082.34;;;-0.26;100.00
17450;BME280;8842;51.244;7.102;2023-01-26T04:03:57;100086.03;;;-0.17;100.00
17450;BME280;8842;51.244;7.102;2023-01-26T04:14:32;100081.25;;;-0.17;100.00
17450;BME280;8842;51.244;7.102;2023-01-26T04:25:08;100084.77;;;-0.18;100.00
17450;BME280;8842;51.244;7.102;2023-01-26T04:30:15;100089.55;;;-0.19;100.00
17450;BME280;8842;51.244;7.102;2023-01-26T04:40:31;100089.88;;;-0.14;100.00
17450;BME280;8842;51.244;7.102;2023-01-26T04:50:52;100085.86;;;-0.09;100.00
17450;BME280;8842;51.244;7.102;2023-01-26T05:06:20;100078.82;;;-0.25;100.00
17450;BME280;8842;51.244;7.102;2023-01-26T05:16:36;100080.23;;;-0.29;100.00
17450;BME280;8842;51.244;7.102;2023-01-26T05:26:52;100079.05;;;-0.16;100.00
17450;BME280;8842;51.244;7.102;2023-01-26T05:37:15;100083.46;;;-0.18;100.00
17450;BME280;8842;51.244;7.102;2023-01-26T05:47:30;100079.84;;;-0.13;100.00
17450;BME280;8842;51.244;7.102;2023-01-26T05:52:34;100089.12;;;-0.19;100.00
17450;BME280;8842;51.244;7.102;2023-01-26T06:02:50;100086.77;;;-0.12;100.00
17450;BME280;8842;51.244;7.102;2023-01-26T06:07:55;100097.78;;;-0.17;100.00
17450;BME280;8842;51.244;7.102;2023-01-26T06:18:11;100105.83;;;-0.08;100.00
17450;BME280;8842;51.244;7.102;2023-01-26T06:33:39;100103.30;;;-0.11;100.00
17450;BME280;8842;51.244;7.102;2023-01-26T06:38:46;100105.36;;;-0.06;100.00
17450;BME280;8842;51.244;7.102;2023-01-26T06:49:02;100107.90;;;-0.03;100.00
17450;BME280;8842;51.244;7.102;2023-01-26T06:59:21;100104.23;;;0.04;100.00
17450;BME280;8842;51.244;7.102;2023-01-26T07:09:37;100107.50;;;0.12;100.00
17450;BME280;8842;51.244;7.102;2023-01-26T07:14:41;100113.84;;;0.02;100.00
17450;BME280;8842;51.244;7.102;2023-01-26T07:19:45;100114.75;;;0.01;100.00
17450;BME280;8842;51.244;7.102;2023-01-26T07:30:01;100104.34;;;-0.01;100.00
17450;BME280;8842;51.244;7.102;2023-01-26T07:45:30;100090.67;;;0.06;100.00
17450;BME280;8842;51.244;7.102;2023-01-26T07:55:46;100115.26;;;0.15;100.00
17450;BME280;8842;51.244;7.102;2023-01-26T08:06:02;100111.11;;;0.24;100.00
17450;BME280;8842;51.244;7.102;2023-01-26T08:16:19;100107.12;;;0.27;100.00
17450;BME280;8842;51.244;7.102;2023-01-26T08:21:23;100115.83;;;0.28;100.00
17450;BME280;8842;51.244;7.102;2023-01-26T08:26:27;100125.50;;;0.40;100.00
17450;BME280;8842;51.244;7.102;2023-01-26T08:36:43;100125.89;;;0.43;100.00
17450;BME280;8842;51.244;7.102;2023-01-26T08:46:59;100134.30;;;0.54;100.00
17450;BME280;8842;51.244;7.102;2023-01-26T08:57:15;100134.89;;;0.65;100.00
17450;BME280;8842;51.244;7.102;2023-01-26T09:07:45;100144.39;;;0.67;100.00
17450;BME280;8842;51.244;7.102;2023-01-26T09:18:15;100145.14;;;0.72;100.00
17450;BME280;8842;51.244;7.102;2023-01-26T09:28:31;100156.55;;;0.86;100.00
17450;BME280;8842;51.244;7.102;2023-01-26T09:33:35;100160.23;;;0.77;100.00
17450;BME280;8842;51.244;7.102;2023-01-26T09:38:40;100163.16;;;0.83;100.00
17450;BME280;8842;51.244;7.102;2023-01-26T09:54:20;100161.50;;;0.79;100.00
17450;BME280;8842;51.244;7.102;2023-01-26T10:04:43;100163.80;;;0.91;100.00
17450;BME280;8842;51.244;7.102;2023-01-26T10:15:02;100151.34;;;1.00;100.00
17450;BME280;8842;51.244;7.102;2023-01-26T10:25:21;100140.80;;;1.03;100.00
17450;BME280;8842;51.244;7.102;2023-01-26T10:35:37;100133.87;;;1.02;100.00
17450;BME280;8842;51.244;7.102;2023-01-26T10:40:43;100137.94;;;1.12;100.00
17450;BME280;8842;51.244;7.102;2023-01-26T10:56:24;100128.83;;;1.25;100.00
17450;BME280;8842;51.244;7.102;2023-01-26T11:01:30;100126.47;;;1.16;100.00
17450;BME280;8842;51.244;7.102;2023-01-26T11:06:36;100119.54;;;1.15;100.00
17450;BME280;8842;51.244;7.102;2023-01-26T11:22:14;100111.78;;;1.27;100.00
17450;BME280;8842;51.244;7.102;2023-01-26T11:32:43;100103.71;;;1.20;100.00
17450;BME280;8842;51.244;7.102;2023-01-26T11:43:18;100095.73;;;1.24;100.00
17450;BME280;8842;51.244;7.102;2023-01-26T12:04:34;100085.23;;;1.53;100.00
17450;BME280;8842;51.244;7.102;2023-01-26T12:14:56;100090.50;;;1.66;100.00
17450;BME280;8842;51.244;7.102;2023-01-26T12:20:10;100089.47;;;1.57;100.00
17450;BME280;8842;51.244;7.102;2023-01-26T12:25:21;100082.11;;;1.70;100.00
17450;BME280;8842;51.244;7.102;2023-01-26T12:35:53;100056.27;;;1.72;100.00
17450;BME280;8842;51.244;7.102;2023-01-26T12:46:16;100036.39;;;1.80;100.00
17450;BME280;8842;51.244;7.102;2023-01-26T12:56:38;100032.12;;;1.77;100.00
17450;BME280;8842;51.244;7.102;2023-01-26T13:07:24;100026.59;;;1.73;100.00
17450;BME280;8842;51.244;7.102;2023-01-26T13:17:49;100030.09;;;1.85;100.00
17450;BME280;8842;51.244;7.102;2023-01-26T13:28:12;100026.87;;;1.90;100.00
17450;BME280;8842;51.244;7.102;2023-01-26T13:38:37;100031.97;;;1.82;100.00
17450;BME280;8842;51.244;7.102;2023-01-26T13:48:53;100016.70;;;1.94;100.00
17450;BME280;8842;51.244;7.102;2023-01-26T13:54:01;100017.71;;;1.90;100.00
17450;BME280;8842;51.244;7.102;2023-01-26T14:04:19;100017.31;;;2.02;100.00
17450;BME280;8842;51.244;7.102;2023-01-26T14:09:25;100026.97;;;2.00;100.00
17450;BME280;8842;51.244;7.102;2023-01-26T14:19:45;100016.92;;;2.01;100.00
17450;BME280;8842;51.244;7.102;2023-01-26T14:30:20;100023.05;;;2.00;100.00
17450;BME280;8842;51.244;7.102;2023-01-26T14:40:45;100030.49;;;2.13;100.00
17450;BME280;8842;51.244;7.102;2023-01-26T14:56:19;100035.83;;;2.09;100.00
17450;BME280;8842;51.244;7.102;2023-01-26T15:06:36;100035.81;;;2.23;100.00
17450;BME280;8842;51.244;7.102;2023-01-26T15:16:53;100040.27;;;2.21;100.00
17450;BME280;8842;51.244;7.102;2023-01-26T15:27:11;100027.33;;;2.16;100.00
17450;BME280;8842;51.244;7.102;2023-01-26T15:32:29;100040.27;;;2.21;100.00
17450;BME280;8842;51.244;7.102;2023-01-26T15:37:34;100051.75;;;2.30;100.00
17450;BME280;8842;51.244;7.102;2023-01-26T15:47:50;100046.48;;;2.43;100.00
17450;BME280;8842;51.244;7.102;2023-01-26T15:58:06;100046.38;;;2.46;100.00
17450;BME280;8842;51.244;7.102;2023-01-26T16:08:24;100043.55;;;2.52;100.00
17450;BME280;8842;51.244;7.102;2023-01-26T16:18:40;100027.72;;;2.66;100.00
17450;BME280;8842;51.244;7.102;2023-01-26T16:28:59;100034.33;;;2.65;100.00
17450;BME280;8842;51.244;7.102;2023-01-26T16:39:16;100029.56;;;2.87;100.00
17450;BME280;8842;51.244;7.102;2023-01-26T16:49:31;100041.09;;;2.95;100.00
17450;BME280;8842;51.244;7.102;2023-01-26T16:59:48;100036.02;;;2.79;100.00
17450;BME280;8842;51.244;7.102;2023-01-26T17:10:09;100038.05;;;2.82;100.00
17450;BME280;8842;51.244;7.102;2023-01-26T17:15:13;100050.33;;;2.82;100.00
17450;BME280;8842;51.244;7.102;2023-01-26T17:30:43;100053.78;;;2.94;100.00
17450;BME280;8842;51.244;7.102;2023-01-26T17:46:12;100050.16;;;3.09;100.00
17450;BME280;8842;51.244;7.102;2023-01-26T18:01:40;100054.08;;;3.21;100.00
17450;BME280;8842;51.244;7.102;2023-01-26T18:22:19;100057.13;;;3.55;100.00
17450;BME280;8842;51.244;7.102;2023-01-26T18:32:35;100057.70;;;3.63;100.00
17450;BME280;8842;51.244;7.102;2023-01-26T18:48:06;100061.52;;;3.66;100.00
17450;BME280;8842;51.244;7.102;2023-01-26T19:03:37;100052.44;;;3.63;100.00
17450;BME280;8842;51.244;7.102;2023-01-26T19:08:42;100050.80;;;3.60;100.00
17450;BME280;8842;51.244;7.102;2023-01-26T19:18:59;100046.33;;;3.62;100.00
17450;BME280;8842;51.244;7.102;2023-01-26T19:24:04;100054.44;;;3.56;100.00
17450;BME280;8842;51.244;7.102;2023-01-26T19:34:22;100057.99;;;3.55;100.00
17450;BME280;8842;51.244;7.102;2023-01-26T19:44:38;100053.21;;;3.43;100.00
17450;BME280;8842;51.244;7.102;2023-01-26T19:54:54;100050.14;;;3.44;100.00
17450;BME280;8842;51.244;7.102;2023-01-26T20:05:11;100047.34;;;3.48;100.00
17450;BME280;8842;51.244;7.102;2023-01-26T20:15:28;100052.86;;;3.52;100.00
17450;BME280;8842;51.244;7.102;2023-01-26T20:25:43;100049.01;;;3.61;100.00
17450;BME280;8842;51.244;7.102;2023-01-26T20:36:00;100049.31;;;3.65;100.00
17450;BME280;8842;51.244;7.102;2023-01-26T20:46:18;100035.49;;;3.60;100.00
17450;BME280;8842;51.244;7.102;2023-01-26T20:56:37;100040.89;;;3.67;100.00
17450;BME280;8842;51.244;7.102;2023-01-26T21:06:53;100037.33;;;3.79;100.00
17450;BME280;8842;51.244;7.102;2023-01-26T21:22:23;100032.54;;;3.89;100.00
17450;BME280;8842;51.244;7.102;2023-01-26T21:32:40;100023.38;;;3.99;100.00
17450;BME280;8842;51.244;7.102;2023-01-26T21:42:56;100022.27;;;4.04;100.00
17450;BME280;8842;51.244;7.102;2023-01-26T21:53:13;100019.91;;;4.18;100.00
17450;BME280;8842;51.244;7.102;2023-01-26T22:03:29;100015.12;;;4.18;100.00
17450;BME280;8842;51.244;7.102;2023-01-26T22:13:46;100018.39;;;4.13;100.00
17450;BME280;8842;51.244;7.102;2023-01-26T22:24:03;100014.58;;;4.10;100.00
17450;BME280;8842;51.244;7.102;2023-01-26T22:34:19;100014.06;;;4.12;100.00
17450;BME280;8842;51.244;7.102;2023-01-26T22:44:38;100014.83;;;4.04;100.00
17450;BME280;8842;51.244;7.102;2023-01-26T22:54:55;100011.94;;;3.90;100.00
17450;BME280;8842;51.244;7.102;2023-01-26T23:00:00;100020.45;;;3.85;100.00
17450;BME280;8842;51.244;7.102;2023-01-26T23:05:05;100023.90;;;3.75;100.00
17450;BME280;8842;51.244;7.102;2023-01-26T23:15:25;100023.33;;;3.79;100.00
17450;BME280;8842;51.244;7.102;2023-01-26T23:20:29;100015.61;;;3.64;100.00
17450;BME280;8842;51.244;7.102;2023-01-26T23:30:45;100009.86;;;3.66;100.00
17450;BME280;8842;51.244;7.102;2023-01-26T23:41:01;100006.73;;;3.57;100.00
17450;BME280;8842;51.244;7.102;2023-01-26T23:51:20;100012.04;;;3.55;100.00
